createdAt,value
2022-10-15T00:01:28.731Z,21.10
2022-10-15T00:03:58.095Z,23.88
2022-10-15T00:06:26.290Z,26.17
2022-10-15T00:08:54.343Z,27.20
2022-10-15T00:11:24.397Z,24.80
2022-10-15T00:13:54.174Z,24.90
2022-10-15T00:16:25.598Z,26.50
2022-10-15T00:18:56.901Z,24.85
2022-10-15T00:21:26.613Z,27.95
2022-10-15T00:23:54.565Z,23.17
2022-10-15T00:26:24.255Z,27.98
2022-10-15T00:28:54.459Z,29.60
2022-10-15T00:31:26.420Z,25.63
2022-10-15T00:33:58.425Z,28.40
2022-10-15T00:36:29.455Z,30.02
2022-10-15T00:38:57.659Z,28.45
2022-10-15T00:41:29.486Z,29.30
2022-10-15T00:43:59.460Z,34.00
2022-10-15T00:46:31.747Z,28.77
2022-10-15T00:51:40.500Z,27.92
2022-10-15T00:54:09.800Z,29.95
2022-10-15T00:56:38.892Z,30.27
2022-10-15T00:59:08.239Z,26.80
2022-10-15T01:01:36.499Z,30.88
2022-10-15T01:04:06.790Z,30.35
2022-10-15T01:06:37.067Z,33.53
2022-10-15T01:09:05.633Z,29.45
2022-10-15T01:11:41.811Z,30.77
2022-10-15T01:14:26.732Z,30.95
2022-10-15T01:16:58.953Z,28.20
2022-10-15T01:19:41.519Z,34.00
2022-10-15T01:22:17.146Z,26.13
2022-10-15T01:25:04.880Z,25.88
2022-10-15T01:27:37.258Z,30.95
2022-10-15T01:30:30.836Z,30.02
2022-10-15T01:33:25.937Z,28.98
2022-10-15T01:36:01.299Z,32.10
2022-10-15T01:38:44.526Z,28.73
2022-10-15T01:41:20.460Z,33.60
2022-10-15T01:44:00.559Z,35.97
2022-10-15T01:46:54.892Z,31.83
2022-10-15T01:49:29.079Z,25.73
2022-10-15T01:51:59.161Z,32.40
2022-10-15T01:54:28.947Z,33.17
2022-10-15T01:56:59.847Z,30.55
2022-10-15T01:59:32.949Z,28.70
2022-10-15T02:02:02.181Z,33.03
2022-10-15T02:04:32.227Z,29.85
2022-10-15T02:07:04.119Z,27.20
2022-10-15T02:09:43.794Z,27.25
2022-10-15T02:12:31.849Z,28.88
2022-10-15T02:15:08.899Z,27.42
2022-10-15T02:17:43.105Z,29.52
2022-10-15T02:20:15.622Z,29.48
2022-10-15T02:22:50.113Z,27.08
2022-10-15T02:25:22.793Z,31.58
2022-10-15T02:27:53.660Z,31.17
2022-10-15T02:30:22.119Z,25.80
2022-10-15T02:32:55.772Z,28.00
2022-10-15T02:35:25.011Z,32.20
2022-10-15T02:37:55.725Z,28.30
2022-10-15T02:40:27.773Z,28.52
2022-10-15T02:42:56.578Z,29.02
2022-10-15T02:45:24.570Z,27.95
2022-10-15T02:47:53.836Z,32.97
2022-10-15T02:50:21.713Z,33.28
2022-10-15T02:52:49.557Z,35.25
2022-10-15T02:55:18.897Z,36.35
2022-10-15T02:57:46.763Z,30.05
2022-10-15T03:00:15.492Z,39.08
2022-10-15T03:02:43.344Z,26.58
2022-10-15T03:05:14.164Z,30.70
2022-10-15T03:07:43.971Z,27.90
2022-10-15T03:10:12.774Z,34.55
2022-10-15T03:12:41.112Z,29.92
2022-10-15T03:15:10.428Z,28.70
2022-10-15T03:17:38.364Z,27.15
2022-10-15T03:20:07.123Z,28.90
2022-10-15T03:22:39.667Z,26.45
2022-10-15T03:25:08.159Z,29.17
2022-10-15T03:27:36.054Z,30.35
2022-10-15T03:30:11.599Z,29.88
2022-10-15T03:32:40.181Z,32.35
2022-10-15T03:35:09.510Z,33.55
2022-10-15T03:37:39.345Z,30.27
2022-10-15T03:40:13.638Z,31.95
2022-10-15T03:42:43.007Z,27.20
2022-10-15T03:45:12.405Z,32.17
2022-10-15T03:47:40.335Z,28.63
2022-10-15T03:50:09.578Z,28.83
2022-10-15T03:52:38.797Z,35.63
2022-10-15T03:55:08.105Z,25.58
2022-10-15T03:57:36.122Z,30.50
2022-10-15T04:00:08.555Z,32.03
2022-10-15T04:02:42.134Z,29.05
2022-10-15T04:05:20.997Z,31.95
2022-10-15T04:07:55.610Z,27.73
2022-10-15T04:10:24.954Z,28.58
2022-10-15T04:12:53.662Z,29.65
2022-10-15T04:15:21.535Z,32.50
2022-10-15T04:17:55.887Z,30.45
2022-10-15T04:20:25.264Z,27.58
2022-10-15T04:22:53.231Z,31.25
2022-10-15T04:25:22.440Z,29.23
2022-10-15T04:27:50.222Z,26.02
2022-10-15T04:30:19.483Z,28.35
2022-10-15T04:33:08.005Z,27.55
2022-10-15T04:35:36.031Z,28.63
2022-10-15T04:38:08.279Z,25.20
2022-10-15T04:41:15.653Z,31.48
2022-10-15T04:44:01.334Z,28.92
2022-10-15T04:46:31.290Z,26.13
2022-10-15T04:49:03.546Z,25.52
2022-10-15T04:51:31.385Z,27.25
2022-10-15T04:54:03.446Z,25.63
2022-10-15T04:56:34.419Z,29.50
2022-10-15T04:59:02.381Z,26.17
2022-10-15T05:01:32.961Z,25.45
2022-10-15T05:04:07.386Z,26.88
2022-10-15T05:06:35.224Z,28.23
2022-10-15T05:09:16.246Z,24.25
2022-10-15T05:11:50.850Z,24.08
2022-10-15T05:14:18.721Z,24.92
2022-10-15T05:17:03.203Z,28.17
2022-10-15T05:19:35.680Z,25.85
2022-10-15T05:22:03.833Z,24.00
2022-10-15T05:24:33.300Z,29.05
2022-10-15T05:27:13.180Z,25.25
2022-10-15T05:29:41.094Z,30.60
2022-10-15T05:32:09.151Z,26.60
2022-10-15T05:34:37.036Z,22.95
2022-10-15T05:37:09.858Z,24.17
2022-10-15T05:39:40.861Z,18.67
2022-10-15T05:42:10.783Z,22.38
2022-10-15T05:44:55.439Z,24.10
2022-10-15T05:47:23.572Z,22.52
2022-10-15T05:49:57.421Z,23.92
2022-10-15T05:52:29.626Z,19.98
2022-10-15T05:55:20.415Z,21.65
2022-10-15T05:57:48.261Z,21.73
2022-10-15T06:00:17.733Z,27.20
2022-10-15T06:05:26.866Z,24.77
2022-10-15T06:07:54.712Z,21.27
2022-10-15T06:10:22.532Z,24.35
2022-10-15T06:12:51.655Z,23.50
2022-10-15T06:15:21.187Z,23.95
2022-10-15T06:17:49.007Z,22.30
2022-10-15T06:20:17.038Z,23.23
2022-10-15T06:22:44.846Z,19.88
2022-10-15T06:25:12.758Z,21.48
2022-10-15T06:27:40.620Z,22.02
2022-10-15T06:30:10.094Z,21.77
2022-10-15T06:32:39.351Z,22.73
2022-10-15T06:35:08.029Z,19.52
2022-10-15T06:37:35.898Z,22.83
2022-10-15T06:40:03.793Z,18.80
2022-10-15T06:42:31.630Z,22.33
2022-10-15T06:44:59.428Z,21.08
2022-10-15T06:47:27.298Z,24.45
2022-10-15T06:49:56.632Z,26.05
2022-10-15T06:52:25.140Z,21.70
2022-10-15T06:54:53.080Z,25.27
2022-10-15T06:57:22.809Z,22.95
2022-10-15T06:59:50.910Z,21.48
2022-10-15T07:02:19.386Z,21.10
2022-10-15T07:04:47.281Z,18.80
2022-10-15T07:07:20.392Z,19.30
2022-10-15T07:09:48.185Z,21.75
2022-10-15T07:12:16.543Z,20.40
2022-10-15T07:14:44.483Z,20.95
2022-10-15T07:17:12.321Z,20.15
2022-10-15T07:19:40.218Z,19.88
2022-10-15T07:22:08.142Z,22.05
2022-10-15T07:24:37.465Z,18.17
2022-10-15T07:27:17.054Z,23.13
2022-10-15T07:29:46.490Z,20.25
2022-10-15T07:32:14.547Z,18.23
2022-10-15T07:34:42.391Z,17.52
2022-10-15T07:37:10.183Z,21.23
2022-10-15T07:39:41.042Z,24.08
2022-10-15T07:42:09.748Z,19.65
2022-10-15T07:44:37.726Z,30.38
2022-10-15T07:49:39.208Z,21.08
2022-10-15T07:52:08.601Z,18.20
2022-10-15T07:54:37.076Z,19.38
2022-10-15T07:57:08.052Z,17.38
2022-10-15T07:59:36.232Z,17.45
2022-10-15T08:02:04.663Z,19.30
2022-10-15T08:04:34.675Z,18.63
2022-10-15T08:07:03.985Z,17.10
2022-10-15T08:09:33.588Z,16.75
2022-10-15T08:12:01.950Z,14.23
2022-10-15T08:14:31.444Z,15.68
2022-10-15T08:16:59.224Z,12.38
2022-10-15T08:19:27.438Z,13.45
2022-10-15T08:21:55.338Z,14.13
2022-10-15T08:24:23.171Z,13.75
2022-10-15T08:26:50.987Z,12.52
2022-10-15T08:29:18.817Z,13.38
2022-10-15T08:31:48.051Z,14.98
2022-10-15T08:34:15.892Z,15.18
2022-10-15T08:36:43.764Z,16.63
2022-10-15T08:39:11.702Z,15.40
2022-10-15T08:41:45.249Z,19.67
2022-10-15T08:44:27.098Z,13.65
2022-10-15T08:47:03.877Z,15.85
2022-10-15T08:49:42.582Z,14.45
2022-10-15T08:52:21.132Z,12.63
2022-10-15T08:54:49.216Z,15.52
2022-10-15T08:57:31.056Z,14.57
2022-10-15T09:00:03.612Z,14.45
2022-10-15T09:02:41.839Z,11.17
2022-10-15T09:05:26.040Z,16.02
2022-10-15T09:07:58.569Z,10.98
2022-10-15T09:10:37.360Z,12.85
2022-10-15T09:13:13.954Z,12.75
2022-10-15T09:15:51.733Z,10.52
2022-10-15T09:18:24.742Z,11.70
2022-10-15T09:20:55.131Z,10.80
2022-10-15T09:23:26.575Z,11.73
2022-10-15T09:26:03.077Z,10.80
2022-10-15T09:28:40.291Z,11.02
2022-10-15T09:31:11.487Z,11.43
2022-10-15T09:33:46.476Z,9.70
2022-10-15T09:36:33.700Z,9.32
2022-10-15T09:39:11.907Z,9.55
2022-10-15T09:41:54.686Z,10.15
2022-10-15T09:44:25.755Z,10.50
2022-10-15T09:46:53.676Z,9.07
2022-10-15T09:49:28.014Z,8.55
2022-10-15T09:52:05.472Z,10.40
2022-10-15T09:54:42.591Z,11.25
2022-10-15T09:57:14.458Z,12.18
2022-10-15T09:59:54.647Z,13.25
2022-10-15T10:02:24.738Z,10.05
2022-10-15T10:04:55.417Z,9.65
2022-10-15T10:07:32.633Z,11.32
2022-10-15T10:10:03.673Z,9.10
2022-10-15T10:12:34.715Z,10.55
2022-10-15T10:15:07.127Z,8.98
2022-10-15T10:17:35.079Z,9.80
2022-10-15T10:20:22.434Z,8.93
2022-10-15T10:22:52.921Z,10.43
2022-10-15T10:25:30.319Z,8.68
2022-10-15T10:28:04.803Z,9.75
2022-10-15T10:30:35.823Z,10.05
2022-10-15T10:33:04.691Z,9.38
2022-10-15T10:35:44.875Z,8.48
2022-10-15T10:38:21.411Z,8.13
2022-10-15T10:40:53.337Z,9.10
2022-10-15T10:43:25.647Z,8.98
2022-10-15T10:45:55.604Z,11.30
2022-10-15T10:48:26.232Z,9.27
2022-10-15T10:51:09.358Z,8.80
2022-10-15T10:53:53.601Z,9.27
2022-10-15T10:58:58.184Z,7.03
2022-10-15T11:01:26.011Z,7.07
2022-10-15T11:03:53.832Z,7.00
2022-10-15T11:06:40.748Z,7.05
2022-10-15T11:09:18.811Z,9.57
2022-10-15T11:11:59.593Z,7.30
2022-10-15T11:14:35.049Z,6.63
2022-10-15T11:17:15.604Z,8.38
2022-10-15T11:20:12.886Z,10.05
2022-10-15T11:22:56.796Z,6.82
2022-10-15T11:25:35.873Z,8.45
2022-10-15T11:28:28.604Z,8.15
2022-10-15T11:31:05.088Z,6.50
2022-10-15T11:34:05.136Z,9.15
2022-10-15T11:36:45.993Z,8.15
2022-10-15T11:39:31.558Z,6.85
2022-10-15T11:42:08.321Z,7.85
2022-10-15T11:44:52.763Z,7.55
2022-10-15T11:47:33.665Z,7.53
2022-10-15T11:50:14.376Z,9.88
2022-10-15T11:52:55.107Z,7.10
2022-10-15T11:55:30.196Z,11.10
2022-10-15T11:58:03.018Z,21.70
2022-10-15T12:00:35.582Z,8.35
2022-10-15T12:03:08.596Z,6.73
2022-10-15T12:05:39.655Z,5.15
2022-10-15T12:08:12.274Z,10.07
2022-10-15T12:10:56.378Z,6.87
2022-10-15T12:13:30.866Z,3.88
2022-10-15T12:16:10.694Z,6.40
2022-10-15T12:18:44.553Z,7.30
2022-10-15T12:21:35.893Z,7.72
2022-10-15T12:24:07.098Z,4.88
2022-10-15T12:26:36.569Z,4.60
2022-10-15T12:29:07.363Z,4.05
2022-10-15T12:31:48.052Z,5.53
2022-10-15T12:34:38.332Z,5.20
2022-10-15T12:37:17.688Z,4.85
2022-10-15T12:39:52.106Z,3.97
2022-10-15T12:42:28.669Z,8.30
2022-10-15T12:44:57.594Z,4.30
2022-10-15T12:47:56.632Z,5.15
2022-10-15T12:50:26.452Z,3.83
2022-10-15T12:53:02.581Z,4.78
2022-10-15T12:55:33.411Z,2.78
2022-10-15T12:58:06.201Z,3.88
2022-10-15T13:00:40.169Z,4.47
2022-10-15T13:03:43.273Z,3.47
2022-10-15T13:06:32.961Z,3.25
2022-10-15T13:09:14.026Z,2.75
2022-10-15T13:11:45.130Z,3.28
2022-10-15T13:14:25.369Z,3.97
2022-10-15T13:16:57.596Z,3.72
2022-10-15T13:19:29.244Z,3.10
2022-10-15T13:22:00.285Z,4.13
2022-10-15T13:24:31.102Z,2.60
2022-10-15T13:27:01.688Z,3.35
2022-10-15T13:29:30.887Z,3.20
2022-10-15T13:31:58.967Z,8.32
2022-10-15T13:34:29.781Z,4.22
2022-10-15T13:36:59.423Z,3.90
2022-10-15T13:42:09.836Z,3.88
2022-10-15T13:44:39.004Z,2.45
2022-10-15T13:47:25.860Z,2.75
2022-10-15T13:50:12.010Z,4.05
2022-10-15T13:52:42.130Z,4.15
2022-10-15T13:55:19.462Z,3.38
2022-10-15T13:57:48.057Z,11.48
2022-10-15T14:00:27.088Z,8.05
2022-10-15T14:03:11.210Z,3.33
2022-10-15T14:05:39.103Z,3.58
2022-10-15T14:08:07.026Z,2.65
2022-10-15T14:10:34.912Z,2.70
2022-10-15T14:13:02.740Z,4.93
2022-10-15T14:15:49.121Z,4.25
2022-10-15T14:18:19.652Z,5.25
2022-10-15T14:20:49.032Z,2.70
2022-10-15T14:23:22.164Z,3.35
2022-10-15T14:25:55.523Z,4.25
2022-10-15T14:28:24.958Z,2.75
2022-10-15T14:30:55.137Z,3.00
2022-10-15T14:33:46.863Z,5.00
2022-10-15T14:36:26.998Z,5.15
2022-10-15T14:38:56.180Z,3.40
2022-10-15T14:41:30.309Z,3.55
2022-10-15T14:44:03.166Z,2.75
2022-10-15T14:46:39.576Z,2.90
2022-10-15T14:49:20.013Z,3.72
2022-10-15T14:51:57.430Z,2.75
2022-10-15T14:54:31.753Z,3.70
2022-10-15T14:56:59.826Z,3.45
2022-10-15T14:59:32.941Z,4.13
2022-10-15T15:02:04.864Z,4.72
2022-10-15T15:04:35.445Z,3.88
2022-10-15T15:07:03.295Z,5.25
2022-10-15T15:09:31.995Z,4.05
2022-10-15T15:11:59.939Z,3.25
2022-10-15T15:14:27.781Z,4.20
2022-10-15T15:16:55.635Z,3.35
2022-10-15T15:19:24.908Z,2.75
2022-10-15T15:21:52.719Z,5.85
2022-10-15T15:24:20.628Z,4.05
2022-10-15T15:26:48.406Z,2.55
2022-10-15T15:29:16.386Z,5.45
2022-10-15T15:31:45.134Z,5.47
2022-10-15T15:34:12.969Z,4.07
2022-10-15T15:36:42.153Z,3.60
2022-10-15T15:39:10.011Z,3.60
2022-10-15T15:41:37.855Z,4.72
2022-10-15T15:44:07.427Z,3.22
2022-10-15T15:46:35.253Z,5.30
2022-10-15T15:49:03.107Z,4.90
2022-10-15T15:51:32.170Z,3.92
2022-10-15T15:54:04.510Z,4.15
2022-10-15T15:56:32.989Z,3.20
2022-10-15T15:59:00.896Z,5.22
2022-10-15T16:01:28.752Z,4.50
2022-10-15T16:03:56.691Z,3.15
2022-10-15T16:06:24.556Z,5.78
2022-10-15T16:08:53.422Z,4.45
2022-10-15T16:11:22.669Z,3.80
2022-10-15T16:13:50.506Z,4.32
2022-10-15T16:16:18.378Z,4.85
2022-10-15T16:18:46.246Z,3.40
2022-10-15T16:21:14.082Z,5.43
2022-10-15T16:23:42.304Z,3.97
2022-10-15T16:26:10.089Z,4.93
2022-10-15T16:28:39.315Z,5.43
2022-10-15T16:31:17.813Z,6.45
2022-10-15T16:33:46.377Z,6.05
2022-10-15T16:36:14.345Z,5.28
2022-10-15T16:38:42.983Z,7.20
2022-10-15T16:41:11.655Z,6.55
2022-10-15T16:43:41.108Z,5.47
2022-10-15T16:46:09.152Z,5.07
2022-10-15T16:48:37.110Z,5.20
2022-10-15T16:51:08.493Z,6.72
2022-10-15T16:53:37.815Z,7.30
2022-10-15T16:56:08.133Z,7.13
2022-10-15T16:58:36.298Z,5.85
2022-10-15T17:01:08.256Z,7.90
2022-10-15T17:03:38.033Z,8.70
2022-10-15T17:06:08.883Z,6.63
2022-10-15T17:08:39.823Z,5.88
2022-10-15T17:11:10.582Z,6.28
2022-10-15T17:13:38.502Z,8.75
2022-10-15T17:16:13.673Z,5.93
2022-10-15T17:18:42.210Z,6.93
2022-10-15T17:21:11.462Z,7.90
2022-10-15T17:23:39.417Z,7.35
2022-10-15T17:26:09.692Z,11.10
2022-10-15T17:28:37.988Z,8.05
2022-10-15T17:31:07.805Z,7.07
2022-10-15T17:33:38.251Z,7.70
2022-10-15T17:36:07.167Z,9.68
2022-10-15T17:38:35.236Z,6.90
2022-10-15T17:41:08.013Z,8.82
2022-10-15T17:43:39.269Z,10.82
2022-10-15T17:46:11.249Z,8.90
2022-10-15T17:48:41.158Z,9.02
2022-10-15T17:51:12.033Z,11.73
2022-10-15T17:53:40.024Z,11.55
2022-10-15T17:56:12.273Z,9.00
2022-10-15T17:58:40.853Z,7.07
2022-10-15T18:01:13.979Z,9.07
2022-10-15T18:03:43.354Z,8.88
2022-10-15T18:06:13.862Z,8.85
2022-10-15T18:08:41.915Z,6.70
2022-10-15T18:11:11.325Z,8.82
2022-10-15T18:13:39.147Z,12.90
2022-10-15T18:16:07.581Z,9.73
2022-10-15T18:18:35.469Z,9.05
2022-10-15T18:21:10.232Z,9.05
2022-10-15T18:23:38.150Z,9.18
2022-10-15T18:26:07.796Z,8.05
2022-10-15T18:28:37.172Z,8.50
2022-10-15T18:31:07.854Z,9.35
2022-10-15T18:33:39.854Z,7.93
2022-10-15T18:36:11.982Z,12.18
2022-10-15T18:38:40.754Z,6.95
2022-10-15T18:41:14.233Z,6.15
2022-10-15T18:43:42.190Z,8.95
2022-10-15T18:46:10.037Z,7.18
2022-10-15T18:48:38.172Z,6.97
2022-10-15T18:51:11.307Z,6.57
2022-10-15T18:53:40.031Z,7.35
2022-10-15T18:56:09.055Z,6.13
2022-10-15T18:58:38.982Z,6.95
2022-10-15T19:01:11.424Z,5.82
2022-10-15T19:03:39.377Z,6.57
2022-10-15T19:06:10.677Z,9.00
2022-10-15T19:08:38.666Z,8.05
2022-10-15T19:11:08.523Z,8.30
2022-10-15T19:13:36.755Z,6.75
2022-10-15T19:16:05.425Z,5.20
2022-10-15T19:18:34.076Z,5.32
2022-10-15T19:21:01.952Z,4.25
2022-10-15T19:23:31.399Z,8.52
2022-10-15T19:25:59.515Z,5.22
2022-10-15T19:28:28.865Z,4.35
2022-10-15T19:30:57.999Z,4.55
2022-10-15T19:33:26.843Z,9.13
2022-10-15T19:35:55.836Z,6.22
2022-10-15T19:38:24.573Z,6.32
2022-10-15T19:40:54.419Z,4.90
2022-10-15T19:43:23.520Z,5.78
2022-10-15T19:45:51.711Z,6.28
2022-10-15T19:48:22.924Z,5.78
2022-10-15T19:50:50.963Z,5.72
2022-10-15T19:53:18.920Z,5.95
2022-10-15T19:55:57.952Z,4.90
2022-10-15T19:58:26.817Z,4.55
2022-10-15T20:00:55.927Z,5.45
2022-10-15T20:03:25.213Z,5.50
2022-10-15T20:05:53.228Z,12.63
2022-10-15T20:08:21.779Z,5.88
2022-10-15T20:10:52.128Z,6.82
2022-10-15T20:13:23.128Z,4.45
2022-10-15T20:15:53.196Z,5.00
2022-10-15T20:18:22.472Z,4.30
2022-10-15T20:20:50.569Z,6.03
2022-10-15T20:23:19.166Z,4.55
2022-10-15T20:25:47.449Z,4.10
2022-10-15T20:28:18.270Z,5.60
2022-10-15T20:30:49.933Z,5.45
2022-10-15T20:33:17.919Z,5.55
2022-10-15T20:35:45.740Z,5.40
2022-10-15T20:38:13.617Z,5.82
2022-10-15T20:40:41.929Z,4.88
2022-10-15T20:43:10.309Z,6.45
2022-10-15T20:45:44.294Z,9.80
2022-10-15T20:48:19.732Z,5.05
2022-10-15T20:50:49.226Z,7.07
2022-10-15T20:53:18.037Z,6.68
2022-10-15T20:55:46.029Z,7.35
2022-10-15T21:00:43.465Z,8.52
2022-10-15T21:03:11.408Z,5.53
2022-10-15T21:05:40.650Z,4.20
2022-10-15T21:08:08.555Z,6.55
2022-10-15T21:10:36.448Z,5.50
2022-10-15T21:13:04.418Z,6.43
2022-10-15T21:15:32.971Z,5.32
2022-10-15T21:18:00.956Z,6.07
2022-10-15T21:20:29.052Z,5.47
2022-10-15T21:22:58.345Z,4.80
2022-10-15T21:25:26.361Z,5.95
2022-10-15T21:27:54.302Z,5.55
2022-10-15T21:30:22.185Z,5.65
2022-10-15T21:32:50.069Z,4.85
2022-10-15T21:35:17.970Z,6.00
2022-10-15T21:37:45.832Z,6.28
2022-10-15T21:40:15.026Z,4.38
2022-10-15T21:42:42.983Z,6.75
2022-10-15T21:45:11.902Z,4.30
2022-10-15T21:47:39.759Z,6.40
2022-10-15T21:50:08.256Z,5.15
2022-10-15T21:52:36.315Z,5.88
2022-10-15T21:55:04.668Z,5.50
2022-10-15T21:57:34.593Z,4.53
2022-10-15T22:00:02.716Z,5.63
2022-10-15T22:02:32.087Z,5.75
2022-10-15T22:05:00.014Z,6.80
2022-10-15T22:07:28.218Z,5.88
2022-10-15T22:09:56.292Z,4.80
2022-10-15T22:12:24.532Z,6.28
2022-10-15T22:14:54.036Z,6.35
2022-10-15T22:17:21.978Z,5.57
2022-10-15T22:19:51.328Z,5.00
2022-10-15T22:22:19.265Z,4.88
2022-10-15T22:24:47.168Z,7.35
2022-10-15T22:27:15.066Z,5.40
2022-10-15T22:29:44.102Z,5.20
2022-10-15T22:32:13.425Z,4.65
2022-10-15T22:34:41.342Z,4.85
2022-10-15T22:37:09.275Z,5.97
2022-10-15T22:39:37.197Z,4.38
2022-10-15T22:42:06.326Z,3.92
2022-10-15T22:44:34.244Z,4.65
2022-10-15T22:47:02.183Z,4.32
2022-10-15T22:49:31.404Z,3.97
2022-10-15T22:51:59.358Z,3.65
2022-10-15T22:54:27.315Z,4.72
2022-10-15T22:56:55.185Z,4.75
2022-10-15T22:59:23.087Z,4.20
2022-10-15T23:01:50.975Z,2.42
2022-10-15T23:04:19.116Z,3.90
2022-10-15T23:06:48.313Z,3.53
2022-10-15T23:09:17.946Z,4.35
2022-10-15T23:11:46.559Z,3.28
2022-10-15T23:14:16.544Z,3.90
2022-10-15T23:16:46.255Z,3.45
2022-10-15T23:19:17.354Z,3.42
2022-10-15T23:21:48.645Z,4.78
2022-10-15T23:24:18.243Z,7.45
2022-10-15T23:26:46.222Z,2.67
2022-10-15T23:29:16.568Z,3.75
2022-10-15T23:31:44.888Z,4.95
2022-10-15T23:34:16.100Z,2.72
2022-10-15T23:36:44.510Z,4.00
2022-10-15T23:39:15.305Z,4.53
2022-10-15T23:41:44.899Z,2.33
2022-10-15T23:44:14.192Z,2.97
2022-10-15T23:46:42.679Z,2.40
2022-10-15T23:49:11.081Z,2.60
2022-10-15T23:51:39.114Z,2.78
2022-10-15T23:54:16.049Z,2.00
2022-10-15T23:56:43.997Z,3.33
2022-10-15T23:59:12.139Z,1.80
